createdAt,value
2022-11-10T00:02:01.866Z,98438.19
2022-11-10T00:05:24.337Z,98441.84
2022-11-10T00:08:47.670Z,98438.56
2022-11-10T00:12:10.064Z,98444.25
2022-11-10T00:15:49.031Z,98446.59
2022-11-10T00:19:11.234Z,98442.78
2022-11-10T00:22:33.560Z,98444.44
2022-11-10T00:25:57.643Z,98444.63
2022-11-10T00:29:19.695Z,98444.53
2022-11-10T00:32:41.990Z,98443.47
2022-11-10T00:36:04.107Z,98442.09
2022-11-10T00:39:26.625Z,98444.03
2022-11-10T00:42:49.952Z,98447.19
2022-11-10T00:46:12.286Z,98439.19
2022-11-10T00:49:34.363Z,98426.66
2022-11-10T00:52:57.236Z,98428.84
2022-11-10T00:56:19.520Z,98431.78
2022-11-10T00:59:43.221Z,98429.41
2022-11-10T01:03:05.587Z,98434.13
2022-11-10T01:06:28.497Z,98434.06
2022-11-10T01:09:50.415Z,98432.16
2022-11-10T01:13:13.421Z,98434.44
2022-11-10T01:16:36.912Z,98428.63
2022-11-10T01:19:59.316Z,98437.97
2022-11-10T01:23:21.473Z,98428.56
2022-11-10T01:26:43.893Z,98431.81
2022-11-10T01:30:06.938Z,98431.06
2022-11-10T01:33:30.554Z,98432.03
2022-11-10T01:36:52.496Z,98431.38
2022-11-10T01:40:15.572Z,98436.25
2022-11-10T01:43:38.315Z,98436.75
2022-11-10T01:47:00.846Z,98436.38
2022-11-10T01:50:28.358Z,98431.41
2022-11-10T01:53:54.972Z,98436.59
2022-11-10T01:57:18.484Z,98441.97
2022-11-10T02:00:40.704Z,98436.59
2022-11-10T02:04:05.175Z,98435.34
2022-11-10T02:07:29.278Z,98430.81
2022-11-10T02:10:51.038Z,98426.00
2022-11-10T02:14:14.931Z,98432.84
2022-11-10T02:17:37.285Z,98434.22
2022-11-10T02:21:01.042Z,98435.94
2022-11-10T02:24:23.113Z,98435.72
2022-11-10T02:27:45.326Z,98433.94
2022-11-10T02:31:09.372Z,98443.91
2022-11-10T02:34:31.663Z,98442.53
2022-11-10T02:37:54.881Z,98431.13
2022-11-10T02:41:17.201Z,98441.50
2022-11-10T02:44:39.616Z,98443.66
2022-11-10T02:48:02.190Z,98453.34
2022-11-10T02:51:24.442Z,98441.25
2022-11-10T02:54:48.251Z,98446.84
2022-11-10T02:58:10.333Z,98455.00
2022-11-10T03:01:32.947Z,98452.16
2022-11-10T03:04:55.098Z,98453.72
2022-11-10T03:08:17.952Z,98449.09
2022-11-10T03:11:41.437Z,98454.94
2022-11-10T03:15:03.660Z,98456.28
2022-11-10T03:18:25.424Z,98455.84
2022-11-10T03:21:47.892Z,98467.91
2022-11-10T03:25:11.161Z,98467.06
2022-11-10T03:28:35.553Z,98471.06
2022-11-10T03:31:57.918Z,98465.38
2022-11-10T03:35:20.474Z,98472.44
2022-11-10T03:38:42.386Z,98468.22
2022-11-10T03:42:04.544Z,98470.91
2022-11-10T03:45:28.033Z,98467.41
2022-11-10T03:48:53.433Z,98472.34
2022-11-10T03:52:16.060Z,98474.44
2022-11-10T03:55:38.441Z,98483.44
2022-11-10T03:59:00.209Z,98488.59
2022-11-10T04:02:23.902Z,98481.47
2022-11-10T04:06:03.342Z,98490.34
2022-11-10T04:09:25.472Z,98496.03
2022-11-10T04:13:07.118Z,98492.59
2022-11-10T04:16:29.396Z,98498.06
2022-11-10T04:19:52.429Z,98493.03
2022-11-10T04:23:34.764Z,98492.34
2022-11-10T04:26:56.496Z,98488.56
2022-11-10T04:30:19.237Z,98493.59
2022-11-10T04:33:42.710Z,98485.66
2022-11-10T04:37:06.227Z,98491.38
2022-11-10T04:40:28.320Z,98484.88
2022-11-10T04:43:50.585Z,98489.22
2022-11-10T04:47:12.498Z,98478.72
2022-11-10T04:50:35.582Z,98478.53
2022-11-10T04:53:58.696Z,98488.78
2022-11-10T04:57:21.371Z,98488.44
2022-11-10T05:00:44.340Z,98495.63
2022-11-10T05:04:06.659Z,98495.31
2022-11-10T05:07:29.051Z,98498.47
2022-11-10T05:10:52.785Z,98506.34
2022-11-10T05:14:14.800Z,98503.28
2022-11-10T05:17:37.156Z,98499.47
2022-11-10T05:20:59.274Z,98504.00
2022-11-10T05:24:21.681Z,98504.72
2022-11-10T05:27:45.248Z,98513.91
2022-11-10T05:31:08.268Z,98515.28
2022-11-10T05:34:31.412Z,98520.16
2022-11-10T05:37:53.767Z,98531.88
2022-11-10T05:41:15.749Z,98533.72
2022-11-10T05:44:39.174Z,98537.34
2022-11-10T05:48:01.022Z,98541.00
2022-11-10T05:51:23.143Z,98545.06
2022-11-10T05:54:45.116Z,98550.94
2022-11-10T05:58:07.508Z,98557.91
2022-11-10T06:01:30.709Z,98567.53
2022-11-10T06:04:53.775Z,98570.06
2022-11-10T06:08:17.906Z,98587.56
2022-11-10T06:11:40.064Z,98584.59
2022-11-10T06:15:02.902Z,98587.84
2022-11-10T06:18:26.811Z,98592.41
2022-11-10T06:21:57.069Z,98590.78
2022-11-10T06:25:22.574Z,98591.41
2022-11-10T06:28:44.296Z,98600.38
2022-11-10T06:32:06.511Z,98608.72
2022-11-10T06:35:31.289Z,98618.06
2022-11-10T06:38:53.622Z,98618.41
2022-11-10T06:42:15.723Z,98621.88
2022-11-10T06:45:38.176Z,98622.88
2022-11-10T06:49:00.381Z,98623.09
2022-11-10T06:52:24.063Z,98629.63
2022-11-10T06:55:45.990Z,98631.91
2022-11-10T06:59:08.321Z,98633.25
2022-11-10T07:02:30.117Z,98640.97
2022-11-10T07:05:52.092Z,98640.97
2022-11-10T07:09:15.557Z,98642.78
2022-11-10T07:12:37.828Z,98641.63
2022-11-10T07:15:59.462Z,98649.25
2022-11-10T07:19:21.316Z,98656.50
2022-11-10T07:22:43.639Z,98654.56
2022-11-10T07:26:07.322Z,98642.53
2022-11-10T07:29:31.627Z,98656.59
2022-11-10T07:33:01.669Z,98661.19
2022-11-10T07:36:23.780Z,98661.91
2022-11-10T07:39:45.675Z,98656.06
2022-11-10T07:43:08.770Z,98654.63
2022-11-10T07:46:31.622Z,98654.47
2022-11-10T07:49:53.608Z,98646.22
2022-11-10T07:53:19.926Z,98657.00
2022-11-10T07:56:42.418Z,98652.94
2022-11-10T08:00:07.559Z,98651.16
2022-11-10T08:03:29.361Z,98654.09
2022-11-10T08:06:51.543Z,98661.03
2022-11-10T08:10:13.838Z,98660.47
2022-11-10T08:13:35.923Z,98664.53
2022-11-10T08:16:59.655Z,98669.41
2022-11-10T08:20:21.600Z,98668.63
2022-11-10T08:23:43.766Z,98664.19
2022-11-10T08:27:06.378Z,98666.72
2022-11-10T08:30:28.842Z,98662.97
2022-11-10T08:33:52.169Z,98665.91
2022-11-10T08:37:14.051Z,98680.41
2022-11-10T08:40:37.151Z,98673.53
2022-11-10T08:44:00.157Z,98676.72
2022-11-10T08:47:22.422Z,98683.22
2022-11-10T08:50:46.516Z,98688.91
2022-11-10T08:54:08.936Z,98688.72
2022-11-10T08:57:31.066Z,98683.41
2022-11-10T09:00:53.598Z,98692.34
2022-11-10T09:04:16.683Z,98679.69
2022-11-10T09:07:46.227Z,98689.06
2022-11-10T09:11:09.066Z,98685.50
2022-11-10T09:14:31.252Z,98689.66
2022-11-10T09:17:52.944Z,98683.34
2022-11-10T09:21:15.517Z,98687.22
2022-11-10T09:24:38.840Z,98678.97
2022-11-10T09:28:01.436Z,98679.78
2022-11-10T09:31:23.349Z,98680.31
2022-11-10T09:34:50.311Z,98684.91
2022-11-10T09:38:15.182Z,98683.31
2022-11-10T09:41:42.056Z,98683.53
2022-11-10T09:45:08.798Z,98690.47
2022-11-10T09:48:34.132Z,98684.44
2022-11-10T09:51:56.465Z,98677.41
2022-11-10T09:55:30.967Z,98687.63
2022-11-10T09:58:55.290Z,98681.25
2022-11-10T10:02:30.916Z,98672.31
2022-11-10T10:06:03.560Z,98673.03
2022-11-10T10:09:36.639Z,98672.78
2022-11-10T10:13:20.670Z,98664.03
2022-11-10T10:16:52.931Z,98663.66
2022-11-10T10:20:26.631Z,98665.72
2022-11-10T10:24:11.348Z,98669.38
2022-11-10T10:27:39.855Z,98673.78
2022-11-10T10:31:14.434Z,98665.59
2022-11-10T10:34:37.958Z,98670.63
2022-11-10T10:38:01.683Z,98666.78
2022-11-10T10:41:26.280Z,98666.09
2022-11-10T10:45:16.587Z,98665.63
2022-11-10T10:48:38.911Z,98663.50
2022-11-10T10:52:07.575Z,98659.03
2022-11-10T10:55:31.119Z,98662.31
2022-11-10T10:58:55.313Z,98663.13
2022-11-10T11:02:27.693Z,98668.72
2022-11-10T11:06:02.171Z,98674.75
2022-11-10T11:09:27.243Z,98665.81
2022-11-10T11:12:49.706Z,98665.50
2022-11-10T11:16:12.690Z,98663.03
2022-11-10T11:19:37.792Z,98664.28
2022-11-10T11:23:08.965Z,98667.25
2022-11-10T11:26:43.910Z,98669.13
2022-11-10T11:30:09.993Z,98654.53
2022-11-10T11:33:39.010Z,98661.25
2022-11-10T11:37:16.554Z,98664.19
2022-11-10T11:40:49.124Z,98655.34
2022-11-10T11:44:26.480Z,98655.81
2022-11-10T11:48:05.915Z,98657.03
2022-11-10T11:51:36.246Z,98662.47
2022-11-10T11:55:11.465Z,98670.88
2022-11-10T11:58:44.679Z,98662.03
2022-11-10T12:02:34.612Z,98671.84
2022-11-10T12:06:13.715Z,98675.25
2022-11-10T12:09:46.159Z,98675.88
2022-11-10T12:13:38.385Z,98671.66
2022-11-10T12:17:11.026Z,98670.84
2022-11-10T12:20:46.804Z,98682.84
2022-11-10T12:24:27.159Z,98683.94
2022-11-10T12:27:56.876Z,98681.41
2022-11-10T12:31:23.551Z,98683.59
2022-11-10T12:34:49.807Z,98679.84
2022-11-10T12:38:18.989Z,98691.69
2022-11-10T12:41:46.906Z,98692.28
2022-11-10T12:45:22.379Z,98701.94
2022-11-10T12:48:54.768Z,98701.31
2022-11-10T12:52:23.108Z,98697.28
2022-11-10T12:55:51.090Z,98705.69
2022-11-10T12:59:26.017Z,98695.38
2022-11-10T13:02:48.778Z,98704.72
2022-11-10T13:06:26.398Z,98709.53
2022-11-10T13:09:48.363Z,98707.53
2022-11-10T13:13:18.474Z,98707.06
2022-11-10T13:16:52.212Z,98725.56
2022-11-10T13:20:48.535Z,98733.53
2022-11-10T13:24:29.110Z,98729.63
2022-11-10T13:27:53.678Z,98732.41
2022-11-10T13:31:53.046Z,98737.72
2022-11-10T13:35:54.896Z,98736.94
2022-11-10T13:39:24.711Z,98745.97
2022-11-10T13:43:25.390Z,98752.97
2022-11-10T13:47:04.662Z,98757.63
2022-11-10T13:50:55.374Z,98752.34
2022-11-10T13:54:35.132Z,98771.78
2022-11-10T13:58:02.028Z,98763.72
2022-11-10T14:01:30.528Z,98774.44
2022-11-10T14:04:54.160Z,98782.84
2022-11-10T14:08:22.082Z,98780.84
2022-11-10T14:11:50.253Z,98789.88
2022-11-10T14:15:18.568Z,98785.66
2022-11-10T14:18:44.118Z,98802.78
2022-11-10T14:22:20.174Z,98803.56
2022-11-10T14:25:45.077Z,98810.88
2022-11-10T14:29:40.028Z,98812.13
2022-11-10T14:33:04.655Z,98812.28
2022-11-10T14:36:26.719Z,98824.56
2022-11-10T14:39:53.743Z,98830.94
2022-11-10T14:43:27.629Z,98834.50
2022-11-10T14:46:50.206Z,98839.47
2022-11-10T14:50:21.295Z,98843.53
2022-11-10T14:53:49.137Z,98846.81
2022-11-10T14:57:20.035Z,98857.53
2022-11-10T15:00:44.470Z,98857.06
2022-11-10T15:04:08.803Z,98860.03
2022-11-10T15:07:32.426Z,98863.13
2022-11-10T15:10:56.368Z,98872.91
2022-11-10T15:14:39.959Z,98885.19
2022-11-10T15:18:01.959Z,98882.25
2022-11-10T15:21:30.251Z,98885.66
2022-11-10T15:24:53.654Z,98885.19
2022-11-10T15:28:31.908Z,98896.69
2022-11-10T15:31:55.425Z,98902.44
2022-11-10T15:35:29.634Z,98912.53
2022-11-10T15:39:03.560Z,98912.50
2022-11-10T15:42:26.210Z,98923.72
2022-11-10T15:45:51.310Z,98919.25
2022-11-10T15:49:21.013Z,98929.84
2022-11-10T15:52:43.258Z,98925.28
2022-11-10T15:56:07.040Z,98930.31
2022-11-10T15:59:28.545Z,98930.75
2022-11-10T16:02:50.488Z,98932.25
2022-11-10T16:06:15.593Z,98946.06
2022-11-10T16:09:37.969Z,98955.50
2022-11-10T16:13:01.071Z,98959.53
2022-11-10T16:16:24.100Z,98961.06
2022-11-10T16:19:47.657Z,98968.78
2022-11-10T16:23:13.490Z,98966.97
2022-11-10T16:26:36.045Z,98973.03
2022-11-10T16:29:58.368Z,98978.69
2022-11-10T16:33:24.741Z,98986.16
2022-11-10T16:36:48.845Z,98993.63
2022-11-10T16:40:18.834Z,98993.41
2022-11-10T16:43:42.574Z,99004.03
2022-11-10T16:47:05.513Z,98999.94
2022-11-10T16:50:33.637Z,99003.88
2022-11-10T16:53:55.660Z,99018.94
2022-11-10T16:57:20.621Z,99011.13
2022-11-10T17:00:43.428Z,99024.41
2022-11-10T17:04:10.242Z,99024.66
2022-11-10T17:07:34.605Z,99038.16
2022-11-10T17:10:57.449Z,99039.63
2022-11-10T17:15:01.967Z,99053.56
2022-11-10T17:18:25.875Z,99051.69
2022-11-10T17:21:49.648Z,99053.78
2022-11-10T17:25:21.670Z,99064.38
2022-11-10T17:28:43.727Z,99071.19
2022-11-10T17:32:07.559Z,99076.19
2022-11-10T17:35:31.731Z,99068.50
2022-11-10T17:38:55.265Z,99074.28
2022-11-10T17:42:17.348Z,99073.19
2022-11-10T17:45:41.593Z,99077.31
2022-11-10T17:49:05.294Z,99077.44
2022-11-10T17:52:29.799Z,99085.25
2022-11-10T17:56:33.566Z,99089.25
2022-11-10T18:00:34.842Z,99080.78
2022-11-10T18:04:05.635Z,99085.81
2022-11-10T18:07:28.408Z,99096.31
2022-11-10T18:11:09.876Z,99098.78
2022-11-10T18:14:50.994Z,99105.91
2022-11-10T18:18:13.943Z,99115.66
2022-11-10T18:21:38.066Z,99111.53
2022-11-10T18:25:01.151Z,99119.34
2022-11-10T18:28:23.589Z,99122.34
2022-11-10T18:31:45.588Z,99121.25
2022-11-10T18:35:08.384Z,99127.50
2022-11-10T18:38:36.057Z,99118.69
2022-11-10T18:42:02.019Z,99124.84
2022-11-10T18:45:24.023Z,99134.47
2022-11-10T18:48:46.901Z,99129.66
2022-11-10T18:52:15.216Z,99135.22
2022-11-10T18:55:44.446Z,99139.16
2022-11-10T18:59:08.101Z,99140.13
2022-11-10T19:02:30.627Z,99145.06
2022-11-10T19:05:58.374Z,99150.53
2022-11-10T19:09:21.329Z,99160.59
2022-11-10T19:12:44.995Z,99163.03
2022-11-10T19:16:11.508Z,99154.97
2022-11-10T19:19:33.373Z,99163.13
2022-11-10T19:22:56.856Z,99167.25
2022-11-10T19:26:26.145Z,99167.59
2022-11-10T19:29:50.779Z,99180.22
2022-11-10T19:33:13.736Z,99185.28
2022-11-10T19:37:04.565Z,99191.09
2022-11-10T19:40:29.106Z,99198.13
2022-11-10T19:44:19.724Z,99197.81
2022-11-10T19:47:46.151Z,99209.41
2022-11-10T19:51:10.442Z,99200.66
2022-11-10T19:54:32.591Z,99219.53
2022-11-10T19:57:55.326Z,99220.88
2022-11-10T20:01:20.259Z,99224.13
2022-11-10T20:04:58.025Z,99231.63
2022-11-10T20:08:20.257Z,99240.00
2022-11-10T20:11:43.152Z,99245.75
2022-11-10T20:15:06.758Z,99243.41
2022-11-10T20:18:29.154Z,99248.19
2022-11-10T20:21:52.363Z,99264.41
2022-11-10T20:25:15.028Z,99263.06
2022-11-10T20:28:40.605Z,99264.28
2022-11-10T20:32:02.838Z,99260.38
2022-11-10T20:35:24.838Z,99268.22
2022-11-10T20:38:49.049Z,99275.06
2022-11-10T20:42:11.427Z,99266.91
2022-11-10T20:45:34.080Z,99272.03
2022-11-10T20:48:55.803Z,99275.75
2022-11-10T20:52:20.037Z,99277.84
2022-11-10T20:55:53.542Z,99276.06
2022-11-10T20:59:16.456Z,99295.06
2022-11-10T21:02:38.699Z,99283.38
2022-11-10T21:06:05.441Z,99301.06
2022-11-10T21:09:27.867Z,99291.88
2022-11-10T21:12:52.060Z,99301.97
2022-11-10T21:16:14.038Z,99303.84
2022-11-10T21:19:36.814Z,99309.25
2022-11-10T21:23:03.243Z,99315.34
2022-11-10T21:26:26.379Z,99318.94
2022-11-10T21:29:50.202Z,99317.69
2022-11-10T21:33:12.737Z,99328.69
2022-11-10T21:36:34.755Z,99341.97
2022-11-10T21:39:56.953Z,99336.00
2022-11-10T21:43:19.995Z,99335.38
2022-11-10T21:46:43.691Z,99336.88
2022-11-10T21:50:06.998Z,99345.31
2022-11-10T21:53:29.510Z,99345.44
2022-11-10T21:56:51.622Z,99349.00
2022-11-10T22:00:15.562Z,99350.78
2022-11-10T22:03:39.899Z,99349.91
2022-11-10T22:07:20.375Z,99355.19
2022-11-10T22:11:00.456Z,99362.94
2022-11-10T22:14:43.059Z,99380.84
2022-11-10T22:18:23.916Z,99380.22
2022-11-10T22:21:48.939Z,99372.03
2022-11-10T22:25:11.120Z,99379.47
2022-11-10T22:28:33.280Z,99381.72
2022-11-10T22:31:57.766Z,99386.25
2022-11-10T22:35:35.316Z,99379.19
2022-11-10T22:39:03.214Z,99370.00
2022-11-10T22:42:43.033Z,99382.38
2022-11-10T22:46:05.066Z,99379.31
2022-11-10T22:49:27.633Z,99394.59
2022-11-10T22:52:49.507Z,99378.22
2022-11-10T22:56:13.519Z,99389.00
2022-11-10T22:59:36.048Z,99385.69
2022-11-10T23:02:58.548Z,99397.38
2022-11-10T23:06:21.381Z,99388.72
2022-11-10T23:09:43.604Z,99401.06
2022-11-10T23:13:06.819Z,99394.78
2022-11-10T23:16:31.323Z,99395.97
2022-11-10T23:19:53.505Z,99389.03
2022-11-10T23:23:15.911Z,99386.22
2022-11-10T23:26:37.978Z,99390.81
2022-11-10T23:30:01.458Z,99393.66
2022-11-10T23:33:24.879Z,99397.69
2022-11-10T23:36:48.795Z,99390.34
2022-11-10T23:40:11.899Z,99394.81
2022-11-10T23:43:34.942Z,99397.41
2022-11-10T23:46:58.517Z,99390.03
2022-11-10T23:50:21.350Z,99393.03
2022-11-10T23:53:43.814Z,99386.47
2022-11-10T23:57:06.412Z,99390.59
